createdAt,value
2023-01-07T00:01:45.737Z,94.74
2023-01-07T00:04:17.060Z,94.58
2023-01-07T00:06:47.385Z,94.49
2023-01-07T00:09:17.714Z,95.18
2023-01-07T00:11:46.981Z,94.76
2023-01-07T00:14:16.484Z,94.61
2023-01-07T00:16:46.445Z,94.61
2023-01-07T00:19:17.119Z,94.57
2023-01-07T00:21:45.876Z,94.28
2023-01-07T00:24:15.258Z,94.50
2023-01-07T00:26:44.212Z,94.49
2023-01-07T00:29:12.991Z,94.74
2023-01-07T00:31:42.324Z,94.42
2023-01-07T00:34:13.029Z,94.57
2023-01-07T00:36:45.017Z,94.46
2023-01-07T00:39:17.265Z,94.23
2023-01-07T00:42:07.573Z,94.35
2023-01-07T00:44:37.986Z,94.54
2023-01-07T00:47:06.664Z,94.32
2023-01-07T00:49:36.511Z,94.09
2023-01-07T00:52:05.316Z,94.23
2023-01-07T00:54:33.775Z,94.43
2023-01-07T00:57:02.157Z,94.58
2023-01-07T00:59:30.532Z,94.46
2023-01-07T01:01:58.994Z,94.31
2023-01-07T01:04:27.391Z,94.05
2023-01-07T01:06:57.182Z,94.39
2023-01-07T01:09:26.458Z,94.25
2023-01-07T01:11:54.836Z,94.65
2023-01-07T01:14:23.328Z,94.23
2023-01-07T01:16:51.864Z,94.09
2023-01-07T01:19:20.243Z,93.78
2023-01-07T01:21:48.677Z,93.81
2023-01-07T01:24:18.604Z,93.83
2023-01-07T01:26:48.174Z,94.06
2023-01-07T01:29:16.576Z,94.03
2023-01-07T01:31:45.240Z,94.02
2023-01-07T01:34:14.451Z,94.26
2023-01-07T01:36:43.410Z,94.32
2023-01-07T01:39:11.890Z,94.14
2023-01-07T01:41:42.087Z,94.15
2023-01-07T01:44:49.714Z,93.91
2023-01-07T01:47:38.018Z,93.81
2023-01-07T01:50:15.190Z,93.99
2023-01-07T01:52:49.827Z,94.51
2023-01-07T01:55:25.328Z,94.44
2023-01-07T01:58:02.094Z,94.22
2023-01-07T02:00:31.408Z,94.08
2023-01-07T02:03:00.900Z,94.07
2023-01-07T02:05:34.893Z,94.32
2023-01-07T02:08:03.216Z,93.94
2023-01-07T02:10:33.225Z,94.45
2023-01-07T02:13:26.801Z,94.18
2023-01-07T02:16:01.967Z,93.95
2023-01-07T02:18:53.743Z,94.04
2023-01-07T02:21:39.768Z,94.44
2023-01-07T02:24:57.600Z,94.34
2023-01-07T02:27:49.222Z,94.25
2023-01-07T02:30:52.038Z,93.94
2023-01-07T02:33:41.539Z,94.28
2023-01-07T02:36:25.751Z,94.08
2023-01-07T02:39:19.891Z,94.19
2023-01-07T02:41:58.034Z,93.95
2023-01-07T02:44:36.602Z,94.15
2023-01-07T02:47:14.213Z,94.02
2023-01-07T02:49:44.711Z,94.13
2023-01-07T02:52:23.608Z,93.61
2023-01-07T02:54:57.666Z,94.14
2023-01-07T02:58:13.692Z,94.06
2023-01-07T03:01:28.466Z,93.92
2023-01-07T03:04:29.212Z,94.18
2023-01-07T03:07:24.773Z,93.77
2023-01-07T03:10:02.655Z,93.50
2023-01-07T03:12:37.794Z,93.65
2023-01-07T03:15:14.005Z,93.67
2023-01-07T03:17:47.463Z,93.78
2023-01-07T03:20:18.441Z,93.25
2023-01-07T03:22:49.095Z,93.20
2023-01-07T03:25:22.184Z,93.10
2023-01-07T03:27:54.254Z,93.12
2023-01-07T03:30:23.964Z,92.91
2023-01-07T03:32:59.657Z,93.18
2023-01-07T03:35:32.268Z,93.17
2023-01-07T03:38:04.738Z,93.21
2023-01-07T03:40:33.933Z,93.24
2023-01-07T03:43:01.476Z,93.46
2023-01-07T03:45:30.675Z,93.55
2023-01-07T03:48:01.137Z,93.48
2023-01-07T03:50:37.351Z,93.42
2023-01-07T03:53:07.311Z,93.22
2023-01-07T03:55:37.914Z,92.83
2023-01-07T03:58:06.421Z,92.10
2023-01-07T04:00:34.909Z,91.65
2023-01-07T04:03:13.705Z,91.83
2023-01-07T04:05:45.536Z,91.87
2023-01-07T04:08:16.070Z,91.84
2023-01-07T04:10:44.962Z,91.83
2023-01-07T04:13:14.804Z,91.81
2023-01-07T04:15:46.129Z,91.32
2023-01-07T04:18:14.705Z,91.00
2023-01-07T04:20:48.019Z,91.11
2023-01-07T04:23:18.943Z,91.18
2023-01-07T04:25:50.363Z,91.05
2023-01-07T04:28:23.054Z,91.37
2023-01-07T04:30:52.378Z,91.34
2023-01-07T04:33:21.563Z,91.32
2023-01-07T04:35:50.506Z,91.55
2023-01-07T04:38:21.325Z,91.72
2023-01-07T04:40:50.018Z,92.38
2023-01-07T04:43:19.061Z,92.24
2023-01-07T04:45:47.617Z,92.34
2023-01-07T04:48:18.062Z,92.34
2023-01-07T04:50:48.899Z,92.02
2023-01-07T04:53:18.275Z,91.92
2023-01-07T04:55:49.536Z,92.22
2023-01-07T04:58:18.946Z,91.70
2023-01-07T05:00:49.432Z,91.50
2023-01-07T05:03:19.909Z,91.75
2023-01-07T05:05:49.286Z,91.88
2023-01-07T05:08:18.851Z,92.23
2023-01-07T05:10:51.282Z,92.50
2023-01-07T05:13:21.676Z,94.28
2023-01-07T05:15:50.708Z,93.06
2023-01-07T05:18:21.058Z,93.52
2023-01-07T05:20:49.517Z,92.14
2023-01-07T05:23:18.089Z,92.19
2023-01-07T05:25:46.882Z,92.49
2023-01-07T05:28:16.799Z,91.25
2023-01-07T05:30:45.340Z,90.75
2023-01-07T05:33:14.222Z,91.43
2023-01-07T05:35:43.505Z,89.76
2023-01-07T05:38:11.915Z,89.25
2023-01-07T05:40:42.799Z,88.16
2023-01-07T05:43:12.511Z,87.69
2023-01-07T05:45:45.200Z,88.23
2023-01-07T05:48:14.472Z,90.21
2023-01-07T05:50:43.256Z,90.97
2023-01-07T05:53:11.665Z,89.98
2023-01-07T05:55:40.333Z,89.88
2023-01-07T05:58:09.308Z,89.75
2023-01-07T06:00:38.101Z,90.78
2023-01-07T06:03:07.955Z,91.60
2023-01-07T06:05:36.311Z,92.33
2023-01-07T06:08:04.816Z,92.68
2023-01-07T06:10:33.530Z,93.13
2023-01-07T06:13:02.221Z,93.09
2023-01-07T06:15:31.267Z,93.61
2023-01-07T06:17:59.734Z,94.13
2023-01-07T06:20:29.751Z,93.98
2023-01-07T06:22:58.224Z,94.61
2023-01-07T06:25:26.636Z,94.79
2023-01-07T06:27:55.036Z,94.55
2023-01-07T06:30:23.468Z,94.14
2023-01-07T06:32:51.860Z,94.19
2023-01-07T06:35:20.377Z,94.66
2023-01-07T06:37:50.192Z,94.20
2023-01-07T06:40:18.839Z,94.81
2023-01-07T06:42:47.213Z,95.37
2023-01-07T06:45:15.628Z,95.18
2023-01-07T06:47:43.973Z,95.45
2023-01-07T06:50:12.895Z,95.18
2023-01-07T06:52:41.313Z,95.35
2023-01-07T06:55:11.883Z,95.66
2023-01-07T06:57:40.310Z,95.18
2023-01-07T07:00:10.577Z,95.40
2023-01-07T07:02:39.017Z,95.70
2023-01-07T07:05:08.015Z,95.63
2023-01-07T07:07:36.411Z,95.29
2023-01-07T07:10:07.575Z,95.25
2023-01-07T07:12:38.102Z,94.38
2023-01-07T07:15:08.524Z,94.46
2023-01-07T07:17:36.943Z,93.64
2023-01-07T07:20:06.551Z,93.13
2023-01-07T07:22:34.958Z,92.75
2023-01-07T07:25:03.330Z,93.21
2023-01-07T07:27:31.717Z,92.79
2023-01-07T07:30:01.532Z,92.50
2023-01-07T07:32:29.932Z,92.52
2023-01-07T07:34:58.732Z,92.10
2023-01-07T07:37:27.269Z,91.13
2023-01-07T07:39:55.685Z,90.86
2023-01-07T07:42:24.137Z,90.55
2023-01-07T07:44:52.668Z,90.52
2023-01-07T07:47:22.697Z,90.13
2023-01-07T07:49:51.340Z,90.55
2023-01-07T07:52:20.222Z,90.79
2023-01-07T07:54:48.597Z,90.23
2023-01-07T07:57:16.963Z,89.98
2023-01-07T07:59:45.426Z,89.34
2023-01-07T08:02:15.083Z,89.02
2023-01-07T08:04:44.901Z,88.56
2023-01-07T08:07:14.217Z,88.02
2023-01-07T08:10:00.947Z,87.62
2023-01-07T08:12:29.314Z,87.68
2023-01-07T08:14:58.548Z,87.46
2023-01-07T08:17:26.979Z,87.48
2023-01-07T08:19:56.782Z,86.94
2023-01-07T08:22:25.215Z,87.09
2023-01-07T08:24:53.635Z,86.50
2023-01-07T08:27:22.484Z,86.63
2023-01-07T08:29:50.879Z,86.64
2023-01-07T08:32:19.355Z,86.42
2023-01-07T08:34:47.766Z,86.01
2023-01-07T08:37:17.756Z,86.25
2023-01-07T08:39:46.290Z,86.12
2023-01-07T08:42:14.792Z,85.56
2023-01-07T08:44:44.007Z,85.45
2023-01-07T08:47:12.327Z,85.05
2023-01-07T08:49:40.709Z,84.83
2023-01-07T08:52:09.093Z,83.94
2023-01-07T08:54:38.938Z,83.61
2023-01-07T08:57:07.356Z,83.27
2023-01-07T08:59:35.725Z,83.03
2023-01-07T09:02:04.403Z,82.81
2023-01-07T09:04:33.008Z,82.77
2023-01-07T09:07:01.382Z,82.37
2023-01-07T09:09:29.687Z,82.35
2023-01-07T09:11:59.501Z,82.54
2023-01-07T09:14:28.156Z,82.03
2023-01-07T09:17:14.834Z,82.09
2023-01-07T09:19:43.281Z,82.00
2023-01-07T09:22:11.713Z,81.52
2023-01-07T09:24:40.162Z,81.39
2023-01-07T09:27:09.882Z,81.25
2023-01-07T09:29:38.265Z,80.82
2023-01-07T09:32:06.891Z,81.32
2023-01-07T09:34:35.236Z,80.79
2023-01-07T09:37:03.663Z,82.27
2023-01-07T09:39:32.029Z,82.62
2023-01-07T09:42:06.912Z,80.49
2023-01-07T09:44:58.303Z,81.81
2023-01-07T09:47:29.178Z,82.13
2023-01-07T09:50:03.186Z,80.99
2023-01-07T09:52:38.073Z,81.02
2023-01-07T09:55:15.869Z,81.34
2023-01-07T09:57:44.802Z,81.48
2023-01-07T10:00:20.767Z,80.98
2023-01-07T10:03:12.802Z,81.81
2023-01-07T10:05:50.683Z,80.53
2023-01-07T10:08:32.572Z,81.27
2023-01-07T10:11:12.178Z,80.82
2023-01-07T10:13:59.790Z,80.68
2023-01-07T10:16:38.744Z,80.23
2023-01-07T10:19:19.846Z,81.04
2023-01-07T10:21:55.489Z,81.29
2023-01-07T10:24:28.584Z,81.96
2023-01-07T10:27:01.690Z,81.86
2023-01-07T10:29:36.160Z,82.12
2023-01-07T10:32:13.025Z,82.20
2023-01-07T10:34:47.668Z,81.76
2023-01-07T10:37:29.525Z,82.06
2023-01-07T10:40:22.217Z,80.50
2023-01-07T10:43:01.067Z,80.21
2023-01-07T10:45:46.318Z,80.06
2023-01-07T10:49:03.799Z,80.37
2023-01-07T10:51:52.219Z,79.98
2023-01-07T10:54:43.233Z,79.92
2023-01-07T10:57:17.058Z,79.43
2023-01-07T10:59:53.647Z,78.91
2023-01-07T11:02:27.543Z,79.68
2023-01-07T11:04:59.966Z,79.73
2023-01-07T11:07:35.306Z,78.97
2023-01-07T11:10:06.525Z,78.25
2023-01-07T11:12:39.405Z,77.45
2023-01-07T11:15:16.658Z,78.26
2023-01-07T11:17:50.401Z,77.69
2023-01-07T11:20:46.003Z,77.23
2023-01-07T11:23:30.986Z,76.96
2023-01-07T11:26:16.997Z,77.19
2023-01-07T11:28:53.910Z,77.19
2023-01-07T11:31:23.239Z,76.43
2023-01-07T11:34:02.155Z,76.08
2023-01-07T11:36:43.924Z,75.01
2023-01-07T11:39:20.210Z,75.46
2023-01-07T11:41:57.546Z,74.82
2023-01-07T11:44:27.321Z,73.92
2023-01-07T11:46:56.704Z,74.56
2023-01-07T11:49:31.289Z,75.19
2023-01-07T11:52:01.228Z,73.96
2023-01-07T11:54:31.894Z,74.23
2023-01-07T11:57:14.363Z,72.09
2023-01-07T11:59:42.825Z,72.71
2023-01-07T12:02:27.895Z,71.30
2023-01-07T12:05:19.000Z,71.76
2023-01-07T12:07:50.770Z,70.25
2023-01-07T12:10:35.304Z,70.97
2023-01-07T12:13:07.366Z,70.57
2023-01-07T12:15:50.359Z,70.57
2023-01-07T12:18:57.590Z,70.96
2023-01-07T12:21:53.824Z,70.85
2023-01-07T12:25:08.116Z,70.27
2023-01-07T12:27:46.523Z,71.04
2023-01-07T12:30:54.666Z,71.40
2023-01-07T12:33:42.225Z,71.34
2023-01-07T12:36:17.286Z,71.16
2023-01-07T12:38:50.451Z,70.82
2023-01-07T12:41:24.952Z,70.87
2023-01-07T12:44:02.956Z,71.33
2023-01-07T12:46:38.136Z,71.45
2023-01-07T12:49:13.308Z,71.46
2023-01-07T12:51:52.111Z,71.45
2023-01-07T12:54:29.192Z,70.90
2023-01-07T12:57:06.996Z,71.18
2023-01-07T12:59:46.964Z,71.73
2023-01-07T13:02:29.072Z,71.38
2023-01-07T13:05:11.131Z,71.31
2023-01-07T13:07:48.833Z,71.41
2023-01-07T13:10:25.823Z,71.78
2023-01-07T13:12:59.699Z,71.36
2023-01-07T13:15:29.977Z,71.82
2023-01-07T13:18:00.784Z,71.97
2023-01-07T13:20:51.347Z,71.38
2023-01-07T13:23:30.389Z,71.39
2023-01-07T13:26:14.819Z,71.47
2023-01-07T13:29:32.082Z,71.81
2023-01-07T13:32:28.058Z,71.49
2023-01-07T13:35:38.876Z,71.36
2023-01-07T13:38:32.402Z,71.70
2023-01-07T13:41:23.726Z,71.59
2023-01-07T13:44:24.106Z,71.40
2023-01-07T13:46:53.213Z,71.57
2023-01-07T13:49:30.003Z,71.36
2023-01-07T13:52:14.761Z,71.61
2023-01-07T13:55:01.201Z,71.45
2023-01-07T13:57:46.231Z,71.32
2023-01-07T14:00:48.040Z,71.89
2023-01-07T14:03:42.916Z,71.57
2023-01-07T14:06:53.792Z,71.81
2023-01-07T14:09:39.583Z,71.92
2023-01-07T14:13:10.837Z,71.64
2023-01-07T14:16:08.135Z,71.73
2023-01-07T14:19:10.881Z,71.29
2023-01-07T14:22:07.489Z,73.60
2023-01-07T14:25:05.498Z,75.10
2023-01-07T14:28:09.939Z,74.63
2023-01-07T14:30:46.897Z,73.92
2023-01-07T14:33:22.728Z,72.72
2023-01-07T14:35:58.200Z,72.41
2023-01-07T14:39:20.948Z,71.92
2023-01-07T14:42:43.968Z,72.18
2023-01-07T14:45:53.984Z,71.00
2023-01-07T14:48:36.556Z,71.56
2023-01-07T14:51:49.016Z,71.38
2023-01-07T14:55:06.085Z,72.59
2023-01-07T14:57:49.361Z,71.13
2023-01-07T15:00:48.705Z,70.80
2023-01-07T15:03:49.838Z,71.04
2023-01-07T15:06:30.572Z,71.20
2023-01-07T15:09:23.524Z,71.18
2023-01-07T15:12:11.814Z,71.19
2023-01-07T15:15:05.438Z,71.08
2023-01-07T15:17:37.442Z,71.38
2023-01-07T15:20:13.049Z,71.24
2023-01-07T15:23:05.501Z,71.57
2023-01-07T15:25:47.433Z,71.71
2023-01-07T15:28:23.368Z,71.40
2023-01-07T15:31:02.015Z,71.36
2023-01-07T15:33:53.896Z,71.55
2023-01-07T15:36:24.177Z,71.22
2023-01-07T15:38:55.256Z,71.51
2023-01-07T15:41:41.654Z,71.82
2023-01-07T15:44:19.618Z,72.35
2023-01-07T15:46:48.353Z,72.13
2023-01-07T15:49:24.204Z,72.44
2023-01-07T15:51:56.714Z,71.99
2023-01-07T15:54:32.223Z,72.00
2023-01-07T15:57:13.614Z,72.40
2023-01-07T15:59:49.833Z,72.75
2023-01-07T16:02:27.693Z,72.42
2023-01-07T16:05:00.925Z,72.62
2023-01-07T16:07:35.742Z,72.35
2023-01-07T16:10:06.055Z,72.67
2023-01-07T16:12:38.487Z,72.84
2023-01-07T16:15:27.011Z,72.81
2023-01-07T16:17:57.232Z,72.19
2023-01-07T16:20:29.808Z,72.34
2023-01-07T16:23:22.762Z,72.45
2023-01-07T16:26:02.264Z,72.54
2023-01-07T16:28:35.210Z,72.25
2023-01-07T16:31:10.262Z,72.48
2023-01-07T16:33:39.782Z,72.50
2023-01-07T16:36:14.087Z,72.65
2023-01-07T16:38:49.177Z,73.33
2023-01-07T16:41:22.361Z,73.43
2023-01-07T16:43:55.125Z,73.03
2023-01-07T16:46:26.907Z,73.72
2023-01-07T16:49:21.550Z,74.09
2023-01-07T16:51:55.843Z,74.43
2023-01-07T16:54:37.465Z,74.71
2023-01-07T16:57:16.986Z,74.91
2023-01-07T16:59:54.162Z,75.36
2023-01-07T17:02:33.476Z,75.39
2023-01-07T17:05:19.172Z,75.62
2023-01-07T17:07:51.257Z,76.73
2023-01-07T17:10:26.518Z,77.41
2023-01-07T17:13:00.304Z,78.24
2023-01-07T17:15:39.464Z,77.94
2023-01-07T17:18:30.405Z,78.69
2023-01-07T17:21:00.642Z,79.81
2023-01-07T17:23:45.539Z,80.48
2023-01-07T17:26:23.092Z,80.70
2023-01-07T17:28:54.379Z,81.41
2023-01-07T17:31:24.057Z,81.95
2023-01-07T17:33:53.717Z,82.43
2023-01-07T17:36:24.862Z,82.51
2023-01-07T17:38:53.691Z,82.47
2023-01-07T17:41:42.198Z,82.89
2023-01-07T17:44:14.528Z,83.04
2023-01-07T17:46:43.777Z,83.51
2023-01-07T17:49:12.871Z,83.98
2023-01-07T17:51:44.919Z,84.65
2023-01-07T17:54:22.767Z,84.54
2023-01-07T17:56:53.291Z,84.85
2023-01-07T17:59:24.448Z,85.21
2023-01-07T18:01:56.643Z,84.86
2023-01-07T18:04:25.184Z,85.36
2023-01-07T18:06:53.553Z,86.04
2023-01-07T18:09:22.070Z,86.08
2023-01-07T18:12:09.370Z,85.53
2023-01-07T18:14:37.767Z,86.15
2023-01-07T18:17:07.442Z,86.21
2023-01-07T18:19:35.963Z,86.46
2023-01-07T18:22:04.513Z,86.51
2023-01-07T18:24:32.950Z,87.18
2023-01-07T18:27:02.723Z,87.43
2023-01-07T18:29:31.177Z,87.38
2023-01-07T18:31:59.946Z,87.74
2023-01-07T18:34:29.217Z,88.17
2023-01-07T18:36:58.824Z,88.19
2023-01-07T18:39:27.508Z,88.74
2023-01-07T18:41:56.012Z,90.25
2023-01-07T18:44:27.849Z,91.10
2023-01-07T18:46:56.340Z,89.81
2023-01-07T18:49:24.879Z,89.59
2023-01-07T18:51:53.286Z,89.50
2023-01-07T18:54:21.919Z,90.04
2023-01-07T18:56:50.404Z,89.44
2023-01-07T18:59:19.038Z,89.71
2023-01-07T19:01:49.042Z,89.92
2023-01-07T19:04:17.819Z,90.32
2023-01-07T19:06:46.372Z,90.18
2023-01-07T19:09:14.948Z,90.46
2023-01-07T19:11:43.460Z,90.78
2023-01-07T19:14:14.920Z,90.77
2023-01-07T19:16:43.598Z,90.40
2023-01-07T19:19:16.762Z,90.79
2023-01-07T19:21:46.671Z,90.93
2023-01-07T19:24:15.065Z,90.44
2023-01-07T19:26:43.903Z,91.04
2023-01-07T19:29:14.024Z,91.17
2023-01-07T19:31:45.640Z,91.59
2023-01-07T19:34:15.857Z,91.69
2023-01-07T19:36:47.210Z,92.10
2023-01-07T19:39:17.656Z,92.33
2023-01-07T19:41:46.458Z,92.52
2023-01-07T19:44:15.162Z,93.22
2023-01-07T19:46:44.151Z,92.51
2023-01-07T19:49:14.677Z,92.48
2023-01-07T19:51:43.974Z,92.82
2023-01-07T19:54:15.988Z,92.36
2023-01-07T19:56:45.228Z,92.83
2023-01-07T19:59:13.648Z,93.02
2023-01-07T20:01:42.266Z,92.79
2023-01-07T20:04:10.701Z,92.89
2023-01-07T20:06:41.241Z,92.41
2023-01-07T20:09:11.613Z,92.30
2023-01-07T20:11:41.389Z,92.42
2023-01-07T20:14:10.708Z,92.43
2023-01-07T20:16:41.681Z,92.74
2023-01-07T20:19:12.318Z,90.78
2023-01-07T20:21:42.286Z,91.23
2023-01-07T20:24:13.174Z,90.73
2023-01-07T20:26:41.777Z,90.09
2023-01-07T20:29:10.273Z,89.78
2023-01-07T20:31:38.872Z,89.39
2023-01-07T20:34:07.850Z,90.76
2023-01-07T20:36:36.251Z,91.27
2023-01-07T20:39:06.391Z,92.08
2023-01-07T20:41:36.062Z,92.35
2023-01-07T20:44:07.591Z,92.49
2023-01-07T20:46:36.326Z,93.10
2023-01-07T20:49:04.800Z,93.18
2023-01-07T20:51:33.946Z,91.05
2023-01-07T20:54:02.372Z,91.17
2023-01-07T20:56:32.870Z,90.17
2023-01-07T20:59:02.673Z,89.54
2023-01-07T21:01:31.357Z,87.51
2023-01-07T21:04:01.914Z,88.09
2023-01-07T21:06:30.557Z,88.88
2023-01-07T21:08:59.130Z,89.85
2023-01-07T21:11:27.553Z,90.26
2023-01-07T21:13:57.528Z,91.38
2023-01-07T21:16:27.483Z,90.94
2023-01-07T21:18:56.414Z,91.43
2023-01-07T21:21:25.709Z,92.24
2023-01-07T21:23:55.176Z,92.81
2023-01-07T21:26:24.963Z,92.35
2023-01-07T21:28:56.593Z,92.44
2023-01-07T21:31:27.202Z,91.72
2023-01-07T21:33:57.597Z,91.55
2023-01-07T21:36:28.245Z,90.61
2023-01-07T21:38:58.922Z,90.31
2023-01-07T21:41:29.563Z,89.78
2023-01-07T21:43:59.385Z,90.60
2023-01-07T21:46:27.970Z,90.46
2023-01-07T21:48:56.403Z,90.12
2023-01-07T21:51:27.844Z,90.23
2023-01-07T21:53:57.852Z,91.00
2023-01-07T21:56:30.078Z,91.20
2023-01-07T21:59:00.211Z,91.73
2023-01-07T22:01:29.451Z,92.17
2023-01-07T22:03:59.916Z,92.25
2023-01-07T22:06:31.710Z,92.50
2023-01-07T22:09:02.339Z,92.69
2023-01-07T22:11:31.007Z,92.54
2023-01-07T22:14:01.843Z,92.92
2023-01-07T22:16:32.962Z,92.94
2023-01-07T22:19:03.019Z,92.83
2023-01-07T22:21:32.116Z,91.23
2023-01-07T22:24:01.769Z,90.94
2023-01-07T22:26:30.432Z,91.37
2023-01-07T22:29:03.512Z,91.47
2023-01-07T22:31:36.542Z,89.36
2023-01-07T22:34:06.441Z,89.56
2023-01-07T22:36:41.671Z,88.13
2023-01-07T22:39:15.575Z,88.26
2023-01-07T22:41:45.239Z,88.33
2023-01-07T22:44:21.685Z,88.42
2023-01-07T22:46:53.421Z,86.15
2023-01-07T22:49:25.681Z,85.18
2023-01-07T22:51:54.765Z,85.08
2023-01-07T22:54:23.430Z,85.43
2023-01-07T22:56:52.448Z,85.23
2023-01-07T22:59:22.243Z,85.12
2023-01-07T23:01:50.649Z,85.68
2023-01-07T23:04:19.085Z,85.75
2023-01-07T23:06:47.497Z,85.88
2023-01-07T23:09:17.994Z,87.59
2023-01-07T23:11:49.447Z,88.44
2023-01-07T23:14:19.819Z,88.59
2023-01-07T23:16:50.305Z,89.47
2023-01-07T23:19:20.023Z,89.72
2023-01-07T23:21:51.598Z,90.27
2023-01-07T23:24:20.482Z,89.99
2023-01-07T23:26:50.317Z,90.62
2023-01-07T23:29:20.160Z,90.90
2023-01-07T23:31:50.378Z,91.68
2023-01-07T23:34:18.837Z,91.52
2023-01-07T23:36:47.228Z,92.00
2023-01-07T23:39:15.924Z,92.31
2023-01-07T23:41:44.304Z,93.08
2023-01-07T23:44:12.713Z,93.60
2023-01-07T23:46:41.113Z,94.55
2023-01-07T23:49:11.019Z,94.70
2023-01-07T23:51:41.278Z,94.90
2023-01-07T23:54:09.778Z,95.23
2023-01-07T23:56:38.156Z,95.49
2023-01-07T23:59:06.727Z,95.89
